Time;durP1;ratioP1;P1;durP2;ratioP2;P2;SDS_P1;SDS_P2;PMS_P1;PMS_P2;Temp;Humidity;BMP_temperature;BMP_pressure;BME280_temperature;BME280_humidity;BME280_pressure;Samples;Min_cycle;Max_cycle;Signal;HPM_P1;HPM_P2
2024/01/16 00:03:49;;;;;;;5.15;1.75;;;;;;;17.82;48.29;100643.94;10414448;28;20435;-52
2024/01/16 00:08:49;;;;;;;2.97;1.10;;;;;;;17.82;47.75;100637.78;10414404;28;20050;-54
2024/01/16 00:13:50;;;;;;;3.40;1.00;;;;;;;17.78;48.31;100640.28;10454903;28;20036;-55
2024/01/16 00:18:50;;;;;;;2.65;1.02;;;;;;;17.82;48.25;100624.38;10455414;28;20480;-54
2024/01/16 00:23:50;;;;;;;2.17;1.30;;;;;;;17.84;48.62;100643.66;10454974;28;20033;-55
2024/01/16 00:28:51;;;;;;;3.33;1.33;;;;;;;17.82;48.15;100643.16;10437704;28;20287;-55
2024/01/16 00:33:51;;;;;;;2.33;1.10;;;;;;;17.85;47.48;100650.63;10422050;28;20288;-55
2024/01/16 00:38:51;;;;;;;2.50;1.00;;;;;;;17.80;47.78;100650.72;10413493;28;20272;-54
2024/01/16 00:43:52;;;;;;;1.27;0.68;;;;;;;17.82;46.90;100648.53;10413183;28;20028;-54
2024/01/16 00:48:52;;;;;;;3.63;0.87;;;;;;;17.85;47.93;100647.13;10412329;28;20026;-55
2024/01/16 00:53:52;;;;;;;1.60;0.67;;;;;;;17.85;47.39;100664.03;10411306;28;20291;-55
2024/01/16 00:58:53;;;;;;;1.33;0.60;;;;;;;17.82;48.46;100678.03;10412469;28;20313;-54
2024/01/16 01:03:54;;;;;;;1.52;0.75;;;;;;;17.85;48.06;100687.38;10412393;28;20036;-53
2024/01/16 01:08:55;;;;;;;1.50;0.80;;;;;;;17.84;46.70;100691.94;10412191;28;20050;-55
2024/01/16 01:13:55;;;;;;;1.23;0.50;;;;;;;17.80;47.30;100680.22;10453236;28;20025;-55
2024/01/16 01:18:56;;;;;;;2.15;0.70;;;;;;;17.81;47.37;100676.44;10452069;28;20283;-56
2024/01/16 01:23:56;;;;;;;2.53;0.52;;;;;;;17.82;48.45;100672.66;10453111;28;20456;-56
2024/01/16 01:28:56;;;;;;;2.10;0.80;;;;;;;17.83;46.74;100668.88;10452336;28;20102;-56
2024/01/16 01:33:56;;;;;;;0.93;0.43;;;;;;;17.82;46.96;100668.09;10422853;28;20307;-55
2024/01/16 01:38:57;;;;;;;1.03;0.70;;;;;;;17.85;47.02;100668.59;10410842;28;20272;-54
2024/01/16 01:43:57;;;;;;;1.37;0.50;;;;;;;17.82;47.24;100659.25;10410816;28;20272;-54
2024/01/16 01:48:57;;;;;;;2.17;0.80;;;;;;;17.83;47.42;100669.69;10410534;28;20283;-56
2024/01/16 01:53:59;;;;;;;0.83;0.33;;;;;;;17.80;48.02;100672.16;10410583;28;20310;-56
2024/01/16 01:58:59;;;;;;;2.25;0.70;;;;;;;17.79;47.53;100675.94;10421241;28;20276;-55
2024/01/16 02:04:00;;;;;;;1.25;0.45;;;;;;;17.75;47.54;100673.00;10410236;28;20519;-53
2024/01/16 02:09:00;;;;;;;1.55;0.60;;;;;;;17.81;47.16;100673.75;10409261;28;20500;-55
2024/01/16 02:14:01;;;;;;;1.15;0.40;;;;;;;17.87;46.73;100666.41;10421653;28;20456;-54
2024/01/16 02:19:01;;;;;;;0.68;0.30;;;;;;;17.85;47.99;100679.31;10409145;28;20818;-53
2024/01/16 02:24:02;;;;;;;2.57;0.90;;;;;;;17.87;47.93;100677.13;10409325;28;20392;-53
2024/01/16 02:29:04;;;;;;;2.28;0.40;;;;;;;17.86;46.57;100684.41;10407744;28;20299;-55
2024/01/16 02:34:04;;;;;;;0.90;0.43;;;;;;;17.86;47.58;100708.53;10416568;28;20029;-54
2024/01/16 02:39:06;;;;;;;2.05;0.50;;;;;;;17.85;47.67;100706.16;10408677;28;20369;-56
2024/01/16 02:44:06;;;;;;;1.10;0.40;;;;;;;17.82;46.71;100704.84;10407746;28;20075;-54
2024/01/16 02:49:07;;;;;;;1.23;0.60;;;;;;;17.84;47.92;100710.72;10408481;28;20021;-54
2024/01/16 02:54:08;;;;;;;1.00;0.47;;;;;;;17.80;46.82;100699.78;10409067;28;20117;-54
2024/01/16 02:59:09;;;;;;;1.15;0.47;;;;;;;17.86;46.76;100702.38;10408223;28;20030;-54
2024/01/16 03:04:09;;;;;;;1.30;0.47;;;;;;;17.81;46.86;100685.28;10408620;28;20022;-56
2024/01/16 03:09:11;;;;;;;1.50;0.60;;;;;;;17.81;46.98;100689.84;10410464;28;20099;-54
2024/01/16 03:14:13;;;;;;;0.90;0.30;;;;;;;17.83;47.48;100685.78;10454551;28;20870;-55
2024/01/16 03:19:13;;;;;;;1.83;0.43;;;;;;;17.89;47.16;100685.72;10456225;28;20029;-54
2024/01/16 03:24:14;;;;;;;0.93;0.50;;;;;;;17.78;47.66;100685.06;10457632;28;20024;-54
2024/01/16 03:29:15;;;;;;;0.85;0.40;;;;;;;17.78;47.82;100696.59;10456138;28;20267;-55
2024/01/16 03:34:15;;;;;;;1.20;0.40;;;;;;;17.74;46.32;100692.09;10424884;28;20069;-56
2024/01/16 03:39:15;;;;;;;1.00;0.50;;;;;;;17.81;47.29;100687.97;10414212;28;20372;-55
2024/01/16 03:44:16;;;;;;;1.50;0.40;;;;;;;17.75;46.95;100680.25;10415639;28;20279;-55
2024/01/16 03:49:16;;;;;;;1.60;0.40;;;;;;;17.80;46.73;100681.00;10415000;28;20326;-55
2024/01/16 03:54:16;;;;;;;0.90;0.40;;;;;;;17.78;47.91;100690.44;10415134;28;20307;-55
2024/01/16 03:59:17;;;;;;;1.55;0.45;;;;;;;17.77;47.22;100686.94;10414821;28;20291;-55
2024/01/16 04:04:17;;;;;;;1.37;0.60;;;;;;;17.75;48.01;100694.47;10414822;28;20025;-55
2024/01/16 04:09:17;;;;;;;1.00;0.33;;;;;;;17.77;47.76;100697.69;10417627;28;20279;-54
2024/01/16 04:14:18;;;;;;;0.77;0.40;;;;;;;17.77;47.07;100700.38;10455490;28;20294;-55
2024/01/16 04:19:18;;;;;;;0.63;0.30;;;;;;;17.75;46.71;100689.09;10455261;28;20033;-55
2024/01/16 04:24:19;;;;;;;1.70;0.30;;;;;;;17.75;47.56;100694.47;10453948;28;20025;-56
2024/01/16 04:29:19;;;;;;;1.27;0.40;;;;;;;17.79;47.07;100686.66;10454665;28;20283;-56
2024/01/16 04:34:19;;;;;;;1.23;0.33;;;;;;;17.76;46.03;100689.94;10422058;28;20296;-54
2024/01/16 04:39:22;;;;;;;0.63;0.30;;;;;;;17.75;47.43;100680.25;10412867;28;20283;-56
2024/01/16 04:44:22;;;;;;;1.00;0.30;;;;;;;17.75;46.65;100672.22;10441614;28;20633;-55
2024/01/16 04:49:23;;;;;;;1.13;0.50;;;;;;;17.80;47.14;100672.16;10424346;28;20028;-55
2024/01/16 04:54:24;;;;;;;1.38;0.30;;;;;;;17.75;46.10;100672.22;10412817;28;20284;-54
2024/01/16 04:59:24;;;;;;;0.97;0.30;;;;;;;17.81;46.29;100679.13;10413837;28;20475;-54
2024/01/16 05:04:24;;;;;;;0.60;0.30;;;;;;;17.70;46.76;100662.38;10412399;28;20287;-56
2024/01/16 05:09:25;;;;;;;1.40;0.27;;;;;;;17.76;47.52;100652.38;10416433;28;20973;-55
2024/01/16 05:14:25;;;;;;;0.88;0.30;;;;;;;17.73;47.45;100653.75;10434256;28;20295;-56
2024/01/16 05:19:25;;;;;;;0.95;0.40;;;;;;;17.75;47.74;100640.03;10411410;28;20021;-56
2024/01/16 05:24:25;;;;;;;0.53;0.30;;;;;;;17.74;47.11;100641.13;10411834;28;20099;-55
2024/01/16 05:29:26;;;;;;;0.50;0.30;;;;;;;17.79;46.49;100631.13;10422316;28;20287;-56
2024/01/16 05:34:27;;;;;;;0.70;0.20;;;;;;;17.75;47.27;100632.78;10433175;28;20987;-55
2024/01/16 05:39:27;;;;;;;0.90;0.38;;;;;;;17.78;47.19;100634.91;10424852;28;20283;-56
2024/01/16 05:44:28;;;;;;;1.60;0.40;;;;;;;17.76;46.76;100634.41;10414501;28;20036;-53
2024/01/16 05:49:28;;;;;;;0.50;0.30;;;;;;;17.74;46.97;100627.72;10412279;28;20303;-56
2024/01/16 05:54:28;;;;;;;1.27;0.30;;;;;;;17.75;46.09;100621.25;10430040;28;20639;-55
2024/01/16 05:59:29;;;;;;;0.87;0.40;;;;;;;17.77;47.42;100616.44;10451414;28;20336;-55
2024/01/16 06:04:29;;;;;;;3.83;0.60;;;;;;;17.90;47.56;100621.03;10451245;28;20271;-53
2024/01/16 06:09:29;;;;;;;10.40;1.00;;;;;;;18.02;47.71;100610.66;10437878;28;20447;-54
2024/01/16 06:14:30;;;;;;;8.55;0.93;;;;;;;18.13;47.80;100613.16;10416127;28;20048;-52
2024/01/16 06:19:30;;;;;;;11.17;1.10;;;;;;;17.95;48.15;100622.84;10409602;28;20029;-53
2024/01/16 06:24:36;;;;;;;8.17;1.13;;;;;;;17.93;48.39;100620.44;10409438;28;21040;-51
2024/01/16 06:29:37;;;;;;;8.02;1.40;;;;;;;17.84;49.15;100619.53;10421899;28;20291;-57
2024/01/16 06:34:38;;;;;;;6.67;1.47;;;;;;;17.81;47.95;100630.84;10419319;28;20044;-52
2024/01/16 06:39:39;;;;;;;6.50;1.08;;;;;;;17.65;47.55;100632.94;10412049;28;20338;-53
2024/01/16 06:44:39;;;;;;;9.85;1.75;;;;;;;17.48;49.09;100633.44;10409014;28;20431;-52
2024/01/16 06:49:40;;;;;;;8.00;1.13;;;;;;;17.63;47.29;100626.25;10408087;28;20029;-52
2024/01/16 06:54:40;;;;;;;8.33;1.30;;;;;;;17.70;47.74;100630.19;10408806;28;20284;-51
2024/01/16 06:59:40;;;;;;;9.03;0.97;;;;;;;17.68;46.87;100640.38;10408737;28;20284;-54
2024/01/16 07:04:40;;;;;;;4.20;1.10;;;;;;;17.68;47.51;100626.19;10409199;28;20319;-54
2024/01/16 07:09:41;;;;;;;7.23;0.90;;;;;;;17.65;46.89;100622.22;10408151;28;20288;-52
2024/01/16 07:14:41;;;;;;;6.83;1.03;;;;;;;17.64;46.98;100620.63;10443028;28;20299;-53
2024/01/16 07:19:41;;;;;;;4.07;1.00;;;;;;;17.58;48.12;100623.66;10446781;28;20032;-50
2024/01/16 07:24:42;;;;;;;4.67;0.77;;;;;;;17.61;47.06;100623.06;10446259;28;20017;-54
2024/01/16 07:29:42;;;;;;;2.35;0.88;;;;;;;17.59;46.66;100631.41;10448005;28;20291;-53
2024/01/16 07:34:43;;;;;;;4.05;1.20;;;;;;;17.54;46.97;100637.66;10408628;28;20035;-53
2024/01/16 07:39:43;;;;;;;2.20;0.70;;;;;;;17.48;47.44;100651.41;10403110;28;20037;-53
2024/01/16 07:44:43;;;;;;;6.37;0.80;;;;;;;17.46;48.03;100651.69;10427783;28;20025;-52
2024/01/16 07:49:44;;;;;;;5.50;1.73;;;;;;;17.52;47.38;100655.09;10445429;28;20278;-53
2024/01/16 07:54:44;;;;;;;3.90;1.15;;;;;;;17.50;48.10;100652.69;10442764;28;20029;-51
2024/01/16 07:59:45;;;;;;;4.87;0.80;;;;;;;17.52;47.61;100655.09;10448453;28;20039;-49
2024/01/16 08:04:45;;;;;;;2.97;0.83;;;;;;;17.55;46.71;100649.16;10454930;28;20290;-53
2024/01/16 08:09:45;;;;;;;4.35;1.10;;;;;;;17.52;46.99;100655.91;10448148;28;20314;-53
2024/01/16 08:14:46;;;;;;;4.87;1.40;;;;;;;17.45;47.28;100658.13;10454670;28;20033;-54
2024/01/16 08:19:46;;;;;;;2.83;0.73;;;;;;;17.50;47.29;100663.41;10453871;28;20363;-54
2024/01/16 08:24:46;;;;;;;2.43;0.53;;;;;;;17.45;47.16;100662.69;10454026;28;20909;-54
2024/01/16 08:29:49;;;;;;;3.33;0.75;;;;;;;17.43;47.43;100657.63;10425209;28;20358;-52
2024/01/16 08:34:50;;;;;;;4.13;0.98;;;;;;;17.51;47.98;100659.66;10428831;28;20044;-54
2024/01/16 08:39:50;;;;;;;3.03;1.33;;;;;;;17.48;48.29;100654.06;10429290;28;20694;-54
2024/01/16 08:44:50;;;;;;;3.60;0.87;;;;;;;17.50;47.53;100654.59;10427508;28;20029;-53
2024/01/16 08:49:51;;;;;;;8.30;1.30;;;;;;;17.48;46.95;100656.75;10435998;28;20742;-54
2024/01/16 08:54:51;;;;;;;3.07;0.93;;;;;;;17.50;47.53;100660.75;10426672;28;20299;-54
2024/01/16 08:59:52;;;;;;;1.90;0.73;;;;;;;17.46;47.56;100659.72;10434494;28;20271;-55
2024/01/16 09:04:53;;;;;;;2.25;0.70;;;;;;;17.50;48.50;100654.59;10438249;28;20268;-55
2024/01/16 09:09:53;;;;;;;3.03;0.73;;;;;;;17.44;48.17;100664.59;10423976;28;20049;-55
2024/01/16 09:14:54;;;;;;;2.10;0.50;;;;;;;17.45;48.09;100658.13;10414005;28;20291;-55
2024/01/16 09:19:54;;;;;;;4.87;0.90;;;;;;;17.43;47.91;100654.16;10410975;28;20032;-53
2024/01/16 09:24:54;;;;;;;1.87;1.00;;;;;;;17.47;47.26;100658.66;10410339;28;20619;-54
2024/01/16 09:29:55;;;;;;;3.33;0.83;;;;;;;17.47;46.96;100660.53;10417950;28;20397;-54
2024/01/16 09:34:55;;;;;;;1.75;0.77;;;;;;;17.45;48.19;100655.47;10410003;28;20284;-55
2024/01/16 09:39:55;;;;;;;2.58;0.95;;;;;;;17.49;47.34;100659.16;10410439;28;20040;-55
2024/01/16 09:44:56;;;;;;;2.03;0.63;;;;;;;17.47;46.90;100663.22;10409238;28;20021;-55
2024/01/16 09:49:57;;;;;;;2.88;0.70;;;;;;;17.47;48.13;100655.97;10409876;28;20040;-55
2024/01/16 09:54:58;;;;;;;4.13;0.82;;;;;;;17.39;48.39;100650.44;10408099;28;20370;-52
2024/01/16 09:59:59;;;;;;;1.43;0.60;;;;;;;17.43;47.40;100651.47;10409631;28;20029;-55
2024/01/16 10:05:00;;;;;;;3.38;1.00;;;;;;;17.46;47.12;100645.53;10421990;28;20731;-54
2024/01/16 10:10:00;;;;;;;2.83;1.23;;;;;;;17.49;47.78;100644.94;10418144;28;20049;-54
2024/01/16 10:15:00;;;;;;;1.48;0.60;;;;;;;17.47;47.44;100636.41;10431775;28;20103;-53
2024/01/16 10:20:04;;;;;;;2.77;0.90;;;;;;;17.44;48.09;100640.47;10414226;28;20167;-55
2024/01/16 10:25:05;;;;;;;2.88;0.80;;;;;;;17.42;47.04;100631.91;10407823;28;20272;-53
2024/01/16 10:30:06;;;;;;;2.58;1.00;;;;;;;17.41;47.53;100624.19;10416240;28;20059;-52
2024/01/16 10:35:09;;;;;;;1.70;0.50;;;;;;;17.35;47.52;100626.09;10407597;28;20124;-53
2024/01/16 10:40:10;;;;;;;2.83;0.60;;;;;;;17.27;47.60;100617.91;10408386;28;20036;-54
2024/01/16 10:45:17;;;;;;;4.53;0.95;;;;;;;17.21;49.95;100617.19;10407931;28;20096;-57
2024/01/16 10:50:17;;;;;;;1.00;0.73;;;;;;;17.18;48.71;100613.22;10408024;28;20045;-53
2024/01/16 10:55:22;;;;;;;1.85;0.93;;;;;;;17.15;48.57;100623.69;10407400;28;20108;-52
2024/01/16 11:00:24;;;;;;;1.63;0.40;;;;;;;17.15;50.04;100621.81;10422710;28;20151;-55
2024/01/16 11:05:25;;;;;;;1.88;0.63;;;;;;;17.12;50.84;100625.06;10435126;28;20053;-55
2024/01/16 11:10:27;;;;;;;3.17;1.00;;;;;;;17.12;48.27;100622.41;10413629;28;20052;-55
2024/01/16 11:15:28;;;;;;;3.33;1.38;;;;;;;17.13;48.78;100610.59;10408053;28;20122;-53
2024/01/16 11:20:29;;;;;;;2.20;0.60;;;;;;;17.08;49.94;100608.00;10405489;28;20060;-53
2024/01/16 11:25:33;;;;;;;1.40;0.65;;;;;;;17.05;50.22;100597.03;10403444;28;20025;-54
2024/01/16 11:30:34;;;;;;;1.55;0.60;;;;;;;17.03;50.38;100594.66;10413430;28;20485;-54
2024/01/16 11:35:39;;;;;;;1.88;0.70;;;;;;;17.03;49.90;100577.78;10418154;28;20028;-52
2024/01/16 11:40:40;;;;;;;0.85;0.50;;;;;;;17.05;51.08;100573.75;10429840;28;20793;-54
2024/01/16 11:45:40;;;;;;;1.65;0.60;;;;;;;17.04;50.39;100579.38;10426552;28;20083;-53
2024/01/16 11:50:41;;;;;;;1.92;0.88;;;;;;;17.01;50.67;100558.53;10429540;28;20040;-55
2024/01/16 11:56:13;;;;;;;1.60;0.63;;;;;;;16.99;51.37;100563.38;10431996;28;20032;-51
2024/01/16 12:01:16;;;;;;;1.20;0.60;;;;;;;16.99;50.24;100576.78;10439639;28;20033;-55
2024/01/16 12:06:16;;;;;;;1.75;0.80;;;;;;;16.99;49.66;100574.09;10440666;28;20018;-53
2024/01/16 12:11:19;;;;;;;2.90;0.80;;;;;;;16.94;50.48;100574.97;10429811;28;20046;-52
2024/01/16 12:16:19;;;;;;;2.25;0.73;;;;;;;16.92;50.02;100563.72;10426846;28;20026;-53
2024/01/16 12:21:20;;;;;;;1.97;0.70;;;;;;;16.86;51.38;100571.03;10437106;28;20017;-53
2024/01/16 12:26:23;;;;;;;2.50;0.88;;;;;;;16.86;50.82;100549.59;10430266;28;20337;-54
2024/01/16 12:31:25;;;;;;;2.00;0.70;;;;;;;16.89;51.21;100543.66;10429363;28;20276;-54
2024/01/16 12:36:25;;;;;;;1.80;0.68;;;;;;;16.89;49.62;100546.34;10428857;28;20109;-54
2024/01/16 12:41:28;;;;;;;2.25;0.88;;;;;;;16.86;50.42;100536.22;10431609;28;20024;-54
2024/01/16 12:46:28;;;;;;;2.28;0.90;;;;;;;16.81;50.07;100535.47;10426999;28;20021;-52
2024/01/16 12:51:29;;;;;;;2.20;0.63;;;;;;;16.72;50.87;100519.28;10426592;28;20457;-55
2024/01/16 12:56:29;;;;;;;1.17;0.50;;;;;;;16.68;51.68;100520.91;10425705;28;20021;-54
2024/01/16 13:01:31;;;;;;;0.80;0.60;;;;;;;16.61;51.62;100507.06;10415437;28;20025;-53
2024/01/16 13:06:31;;;;;;;2.03;0.70;;;;;;;16.56;50.71;100505.22;10410927;28;20034;-53
2024/01/16 13:11:32;;;;;;;2.80;1.15;;;;;;;16.52;50.30;100500.75;10432912;28;20434;-56
2024/01/16 13:16:32;;;;;;;2.85;0.65;;;;;;;16.43;51.24;100497.09;10450335;28;20060;-54
2024/01/16 13:21:33;;;;;;;10.93;1.40;;;;;;;16.59;50.90;100498.53;10451819;28;20017;-52
2024/01/16 13:26:34;;;;;;;10.57;1.90;;;;;;;16.66;50.80;100499.75;10440119;28;20635;-52
2024/01/16 13:31:34;;;;;;;10.15;2.25;;;;;;;16.73;50.82;100495.97;10425221;28;20043;-52
2024/01/16 13:36:35;;;;;;;12.25;2.03;;;;;;;16.73;51.69;100501.34;10423772;28;20040;-52
2024/01/16 13:41:35;;;;;;;13.20;2.50;;;;;;;16.82;52.41;100499.59;10425424;28;20017;-54
2024/01/16 13:46:36;;;;;;;8.35;2.05;;;;;;;16.84;52.10;100492.88;10414813;28;20405;-47
2024/01/16 13:51:36;;;;;;;8.40;2.00;;;;;;;16.86;53.09;100488.03;10409295;28;20083;-52
2024/01/16 13:56:36;;;;;;;13.87;2.97;;;;;;;16.87;52.26;100481.56;10408694;28;20033;-51
2024/01/16 14:01:37;;;;;;;9.55;2.38;;;;;;;16.86;52.08;100473.84;10409494;28;20744;-54
2024/01/16 14:06:37;;;;;;;11.23;2.90;;;;;;;16.87;52.39;100480.78;10408339;28;20029;-49
2024/01/16 14:11:37;;;;;;;10.48;2.40;;;;;;;16.86;51.26;100473.84;10415323;28;20296;-54
2024/01/16 14:16:38;;;;;;;7.03;2.70;;;;;;;16.83;51.79;100469.84;10408275;28;20034;-55
2024/01/16 14:21:38;;;;;;;12.97;3.20;;;;;;;16.77;51.05;100470.22;10407043;28;20025;-55
2024/01/16 14:26:44;;;;;;;10.87;2.57;;;;;;;16.79;50.65;100466.16;10407664;28;20283;-55
2024/01/16 14:31:48;;;;;;;14.68;2.22;;;;;;;16.79;50.58;100463.47;10424259;28;20835;-53
2024/01/16 14:36:49;;;;;;;12.30;3.60;;;;;;;16.83;50.04;100464.50;10420807;28;20160;-54
2024/01/16 14:41:51;;;;;;;12.00;2.78;;;;;;;16.81;50.76;100452.47;10407808;28;20480;-54
2024/01/16 14:46:53;;;;;;;15.95;3.22;;;;;;;16.73;51.07;100434.41;10424497;28;20029;-55
2024/01/16 14:51:54;;;;;;;9.68;2.65;;;;;;;16.75;50.94;100433.00;10423120;28;20057;-54
2024/01/16 14:56:54;;;;;;;15.53;3.00;;;;;;;16.88;49.22;100429.59;10423525;28;20057;-54
2024/01/16 15:01:55;;;;;;;5.88;2.05;;;;;;;16.84;49.72;100433.97;10432381;28;20268;-54
2024/01/16 15:06:55;;;;;;;10.77;2.15;;;;;;;16.90;48.30;100424.75;10425259;28;20661;-54
2024/01/16 15:11:55;;;;;;;8.57;2.38;;;;;;;17.08;47.80;100430.41;10430849;28;20045;-54
2024/01/16 15:16:56;;;;;;;6.50;2.03;;;;;;;17.22;47.39;100429.34;10430919;28;20086;-52
2024/01/16 15:21:57;;;;;;;5.55;1.83;;;;;;;17.20;46.94;100433.41;10431352;28;20267;-52
2024/01/16 15:26:57;;;;;;;3.40;1.50;;;;;;;17.39;46.67;100426.09;10455589;28;20027;-52
2024/01/16 15:31:58;;;;;;;7.72;2.28;;;;;;;17.40;46.65;100434.94;10435983;28;20371;-53
2024/01/16 15:36:58;;;;;;;7.82;2.35;;;;;;;17.47;47.08;100419.28;10417760;28;20485;-56
2024/01/16 15:41:59;;;;;;;7.80;2.75;;;;;;;17.50;48.87;100416.00;10432114;28;20020;-53
2024/01/16 15:47:03;;;;;;;7.85;2.40;;;;;;;17.44;48.31;100417.19;10426559;28;20423;-55
2024/01/16 15:52:03;;;;;;;13.40;2.60;;;;;;;17.23;48.50;100417.53;10414240;28;20048;-52
2024/01/16 15:57:04;;;;;;;12.00;2.45;;;;;;;17.19;48.91;100423.78;10413844;28;20032;-53
2024/01/16 16:02:04;;;;;;;9.90;2.85;;;;;;;17.15;48.22;100436.16;10413957;28;20036;-53
2024/01/16 16:07:06;;;;;;;9.93;2.55;;;;;;;17.15;47.29;100438.84;10413316;28;20680;-55
2024/01/16 16:12:07;;;;;;;7.40;2.08;;;;;;;17.11;48.13;100438.63;10437657;28;20040;-55
2024/01/16 16:17:08;;;;;;;9.02;1.67;;;;;;;17.14;48.14;100439.94;10413954;28;20025;-55
2024/01/16 16:22:08;;;;;;;4.75;2.00;;;;;;;17.14;48.52;100430.00;10412967;28;20040;-53
2024/01/16 16:27:25;;;;;;;5.50;1.83;;;;;;;17.13;48.50;100439.13;10412601;28;20028;-55
2024/01/16 16:32:25;;;;;;;6.50;2.92;;;;;;;17.12;47.62;100440.22;10418699;28;20040;-54
2024/01/16 16:37:26;;;;;;;4.05;1.40;;;;;;;17.17;46.95;100434.00;10410124;28;20021;-54
2024/01/16 16:42:29;;;;;;;5.40;1.73;;;;;;;17.14;47.51;100439.94;10423011;28;20027;-56
2024/01/16 16:47:29;;;;;;;6.25;2.05;;;;;;;17.14;47.26;100438.03;10412499;28;20292;-55
2024/01/16 16:52:30;;;;;;;4.95;1.60;;;;;;;17.37;47.59;100432.84;10420641;28;20033;-55
2024/01/16 16:57:31;;;;;;;4.72;1.88;;;;;;;17.44;47.31;100423.34;10426431;28;20120;-56
2024/01/16 17:02:31;;;;;;;11.40;3.38;;;;;;;17.44;48.37;100422.56;10425816;28;20060;-55
2024/01/16 17:07:32;;;;;;;5.33;1.77;;;;;;;17.48;48.10;100415.50;10425008;28;20058;-55
2024/01/16 17:12:33;;;;;;;5.50;1.98;;;;;;;17.47;49.82;100405.88;10430875;28;20798;-51
2024/01/16 17:17:34;;;;;;;4.53;1.73;;;;;;;17.46;50.50;100407.78;10443291;28;20029;-53
2024/01/16 17:22:35;;;;;;;4.57;1.45;;;;;;;17.37;49.97;100414.09;10423896;28;20276;-54
2024/01/16 17:27:35;;;;;;;6.78;2.35;;;;;;;17.35;51.70;100408.25;10417817;28;20041;-53
2024/01/16 17:32:36;;;;;;;12.88;2.50;;;;;;;17.44;52.14;100399.22;10423960;28;20079;-52
2024/01/16 17:37:37;;;;;;;7.72;2.92;;;;;;;17.57;53.43;100392.31;10410691;28;20120;-54
2024/01/16 17:42:38;;;;;;;8.52;2.45;;;;;;;17.66;51.82;100395.91;10410906;28;20022;-55
2024/01/16 17:47:38;;;;;;;7.82;2.65;;;;;;;17.53;52.45;100389.44;10410289;28;20083;-52
2024/01/16 17:52:38;;;;;;;6.60;2.30;;;;;;;17.41;51.64;100369.56;10409017;28;20022;-50
2024/01/16 17:57:42;;;;;;;9.43;2.63;;;;;;;17.61;51.35;100368.38;10410129;28;20029;-53
2024/01/16 18:02:42;;;;;;;13.32;2.75;;;;;;;17.83;50.84;100371.19;10408819;28;20029;-54
2024/01/16 18:07:43;;;;;;;9.50;2.63;;;;;;;17.90;50.07;100371.59;10419850;28;20049;-53
2024/01/16 18:12:43;;;;;;;6.95;1.85;;;;;;;17.80;50.48;100372.59;10443257;28;20036;-51
2024/01/16 18:17:48;;;;;;;5.22;2.38;;;;;;;17.69;49.40;100365.03;10450893;28;20627;-54
2024/01/16 18:22:50;;;;;;;7.93;2.50;;;;;;;17.63;49.08;100352.78;10447611;28;20397;-53
2024/01/16 18:27:56;;;;;;;6.00;1.70;;;;;;;17.69;50.43;100349.75;10420017;28;20034;-54
2024/01/16 18:32:57;;;;;;;7.53;2.42;;;;;;;17.64;50.15;100352.50;10422247;28;20464;-54
2024/01/16 18:37:57;;;;;;;6.45;1.90;;;;;;;17.66;50.11;100344.16;10408774;28;20029;-55
2024/01/16 18:42:57;;;;;;;5.72;2.08;;;;;;;17.60;50.31;100332.72;10406783;28;20056;-53
2024/01/16 18:47:58;;;;;;;5.97;2.70;;;;;;;17.47;50.43;100328.16;10411966;28;20026;-56
2024/01/16 18:52:58;;;;;;;8.83;2.00;;;;;;;17.46;50.22;100323.88;10427906;28;20335;-56
2024/01/16 18:58:01;;;;;;;10.02;2.00;;;;;;;17.44;50.00;100326.88;10436546;28;20771;-54
2024/01/16 19:03:02;;;;;;;8.07;1.77;;;;;;;17.50;51.53;100328.34;10424968;28;20109;-55
2024/01/16 19:08:04;;;;;;;4.43;2.05;;;;;;;17.50;50.86;100319.50;10427886;28;20053;-55
2024/01/16 19:13:04;;;;;;;4.43;1.80;;;;;;;17.47;51.97;100314.75;10405557;28;20114;-54
2024/01/16 19:18:05;;;;;;;6.80;1.90;;;;;;;17.47;51.72;100307.50;10427046;28;20041;-54
2024/01/16 19:23:05;;;;;;;4.28;1.67;;;;;;;17.49;52.24;100307.19;10429586;28;20029;-53
2024/01/16 19:28:06;;;;;;;5.47;1.75;;;;;;;17.49;51.93;100307.19;10435590;28;20029;-53
2024/01/16 19:33:08;;;;;;;3.97;1.42;;;;;;;17.47;51.79;100307.50;10444211;28;20365;-52
2024/01/16 19:38:08;;;;;;;5.40;2.17;;;;;;;17.49;51.07;100297.28;10424080;28;20028;-55
2024/01/16 19:43:08;;;;;;;4.88;1.80;;;;;;;17.59;51.10;100296.28;10415299;28;20667;-54
2024/01/16 19:48:12;;;;;;;3.87;1.70;;;;;;;17.59;52.03;100292.81;10415227;28;20029;-55
2024/01/16 19:53:14;;;;;;;4.93;1.70;;;;;;;17.57;52.57;100282.38;10406601;28;20783;-56
2024/01/16 19:58:15;;;;;;;3.00;1.38;;;;;;;17.59;52.82;100274.03;10413463;28;20089;-56
2024/01/16 20:03:15;;;;;;;4.28;2.03;;;;;;;17.57;51.43;100278.91;10412799;28;20147;-57
2024/01/16 20:08:15;;;;;;;3.92;1.60;;;;;;;17.60;52.58;100270.25;10412724;28;20087;-56
2024/01/16 20:13:16;;;;;;;5.67;2.03;;;;;;;17.54;51.37;100248.94;10450034;28;20131;-55
2024/01/16 20:18:16;;;;;;;3.75;2.10;;;;;;;17.52;51.46;100250.31;10444245;28;20266;-56
2024/01/16 20:23:17;;;;;;;3.05;2.08;;;;;;;17.53;51.14;100262.66;10416713;28;20462;-55
2024/01/16 20:28:17;;;;;;;4.13;1.92;;;;;;;17.51;51.46;100254.09;10442240;28;20483;-54
2024/01/16 20:33:17;;;;;;;5.47;1.65;;;;;;;17.43;50.56;100252.91;10421042;28;20465;-55
2024/01/16 20:38:18;;;;;;;3.30;1.48;;;;;;;17.35;52.38;100242.88;10413215;28;20021;-54
2024/01/16 20:43:18;;;;;;;4.03;1.60;;;;;;;17.30;51.42;100245.69;10425516;28;20041;-56
2024/01/16 20:48:18;;;;;;;4.60;1.37;;;;;;;17.27;51.44;100232.06;10411546;28;20810;-56
2024/01/16 20:53:20;;;;;;;3.10;1.40;;;;;;;17.22;51.40;100217.69;10411927;28;20346;-55
2024/01/16 20:58:21;;;;;;;3.60;1.73;;;;;;;17.21;52.00;100221.47;10423686;28;20029;-55
2024/01/16 21:03:23;;;;;;;2.20;1.13;;;;;;;17.19;51.90;100206.78;10423495;28;20491;-54
2024/01/16 21:08:24;;;;;;;1.98;1.20;;;;;;;17.25;50.58;100202.88;10425720;28;20060;-55
2024/01/16 21:13:26;;;;;;;3.95;1.40;;;;;;;17.28;51.24;100204.16;10426661;28;20357;-56
2024/01/16 21:18:30;;;;;;;2.55;1.63;;;;;;;17.29;50.92;100200.44;10427045;28;20025;-55
2024/01/16 21:23:30;;;;;;;2.13;1.17;;;;;;;17.34;50.31;100193.06;10425063;28;20184;-55
2024/01/16 21:28:31;;;;;;;3.80;1.60;;;;;;;17.37;50.73;100184.41;10411177;28;20104;-53
2024/01/16 21:33:31;;;;;;;2.63;1.40;;;;;;;17.41;49.70;100187.31;10419584;28;20028;-55
2024/01/16 21:38:32;;;;;;;2.17;1.00;;;;;;;17.43;49.07;100169.84;10409557;28;20034;-55
2024/01/16 21:43:33;;;;;;;3.33;1.65;;;;;;;17.47;49.33;100173.50;10410265;28;20025;-56
2024/01/16 21:48:34;;;;;;;3.35;1.35;;;;;;;17.50;50.10;100172.09;10410619;28;20733;-55
2024/01/16 21:53:36;;;;;;;3.50;1.70;;;;;;;17.51;49.02;100168.31;10409798;28;20026;-54
2024/01/16 21:58:36;;;;;;;2.38;1.13;;;;;;;17.52;49.85;100153.81;10410115;28;20397;-56
2024/01/16 22:03:37;;;;;;;4.93;1.30;;;;;;;17.53;49.90;100148.19;10408285;28;20014;-55
2024/01/16 22:08:37;;;;;;;3.72;1.25;;;;;;;17.53;48.10;100137.44;10408418;28;20292;-55
2024/01/16 22:13:37;;;;;;;2.87;1.43;;;;;;;17.53;48.34;100117.91;10448185;28;20033;-55
2024/01/16 22:18:38;;;;;;;2.95;1.52;;;;;;;17.47;48.91;100100.31;10450175;28;20287;-55
2024/01/16 22:23:38;;;;;;;2.97;1.73;;;;;;;17.51;48.40;100102.09;10448368;28;20206;-55
2024/01/16 22:28:44;;;;;;;2.05;1.17;;;;;;;17.49;49.79;100101.59;10450238;28;20033;-54
2024/01/16 22:33:44;;;;;;;2.70;1.70;;;;;;;17.46;48.39;100088.03;10421758;28;20168;-55
2024/01/16 22:38:46;;;;;;;2.42;1.20;;;;;;;17.48;49.59;100089.31;10406176;28;20113;-55
2024/01/16 22:43:47;;;;;;;3.30;1.70;;;;;;;17.48;49.41;100086.63;10407848;28;20072;-55
2024/01/16 22:48:47;;;;;;;1.77;0.90;;;;;;;17.45;48.59;100057.75;10408298;28;20024;-54
2024/01/16 22:53:47;;;;;;;3.20;1.40;;;;;;;17.47;48.24;100055.56;10407951;28;20087;-54
2024/01/16 22:58:48;;;;;;;2.43;1.10;;;;;;;17.46;49.29;100050.50;10408494;28;20276;-55
2024/01/16 23:03:49;;;;;;;2.53;0.90;;;;;;;17.43;48.81;100062.63;10407408;28;20268;-55